sensor_id;sensor_type;location;lat;lon;timestamp;pressure;altitude;pressure_sealevel;temperature;humidity
64336;BME280;50672;53.362;-6.240;2023-04-03T00:00:59;102988.22;;;8.86;67.00
64336;BME280;50672;53.362;-6.240;2023-04-03T00:03:26;102978.22;;;8.87;67.11
64336;BME280;50672;53.362;-6.240;2023-04-03T00:05:53;102967.59;;;8.84;66.98
64336;BME280;50672;53.362;-6.240;2023-04-03T00:08:21;102973.88;;;8.84;67.05
64336;BME280;50672;53.362;-6.240;2023-04-03T00:10:49;102965.84;;;8.83;67.41
64336;BME280;50672;53.362;-6.240;2023-04-03T00:13:15;102970.31;;;8.84;67.11
64336;BME280;50672;53.362;-6.240;2023-04-03T00:15:43;102968.66;;;8.81;67.26
64336;BME280;50672;53.362;-6.240;2023-04-03T00:18:10;102957.81;;;8.81;67.17
64336;BME280;50672;53.362;-6.240;2023-04-03T00:20:37;102961.50;;;8.80;67.47
64336;BME280;50672;53.362;-6.240;2023-04-03T00:23:04;102952.50;;;8.80;67.39
64336;BME280;50672;53.362;-6.240;2023-04-03T00:25:31;102954.13;;;8.82;67.56
64336;BME280;50672;53.362;-6.240;2023-04-03T00:27:58;102948.81;;;8.81;67.23
64336;BME280;50672;53.362;-6.240;2023-04-03T00:30:25;102941.84;;;8.77;67.33
64336;BME280;50672;53.362;-6.240;2023-04-03T00:32:52;102939.44;;;8.72;67.76
64336;BME280;50672;53.362;-6.240;2023-04-03T00:35:21;102933.25;;;8.70;67.70
64336;BME280;50672;53.362;-6.240;2023-04-03T00:37:50;102928.91;;;8.67;67.81
64336;BME280;50672;53.362;-6.240;2023-04-03T00:40:18;102932.59;;;8.66;67.95
64336;BME280;50672;53.362;-6.240;2023-04-03T00:42:48;102925.47;;;8.65;67.77
64336;BME280;50672;53.362;-6.240;2023-04-03T00:47:44;102926.09;;;8.69;67.88
64336;BME280;50672;53.362;-6.240;2023-04-03T00:50:11;102923.59;;;8.66;68.13
64336;BME280;50672;53.362;-6.240;2023-04-03T00:52:38;102924.91;;;8.60;68.08
64336;BME280;50672;53.362;-6.240;2023-04-03T00:55:08;102920.69;;;8.56;68.24
64336;BME280;50672;53.362;-6.240;2023-04-03T00:57:36;102917.00;;;8.57;68.39
64336;BME280;50672;53.362;-6.240;2023-04-03T01:00:13;102912.19;;;8.61;68.32
64336;BME280;50672;53.362;-6.240;2023-04-03T01:02:41;102912.00;;;8.64;68.46
64336;BME280;50672;53.362;-6.240;2023-04-03T01:05:08;102913.19;;;8.60;68.45
64336;BME280;50672;53.362;-6.240;2023-04-03T01:07:35;102915.03;;;8.59;68.72
64336;BME280;50672;53.362;-6.240;2023-04-03T01:10:07;102911.56;;;8.57;68.65
64336;BME280;50672;53.362;-6.240;2023-04-03T01:12:39;102916.09;;;8.57;68.74
64336;BME280;50672;53.362;-6.240;2023-04-03T01:15:21;102918.81;;;8.57;68.76
64336;BME280;50672;53.362;-6.240;2023-04-03T01:25:51;102921.53;;;8.57;69.28
64336;BME280;50672;53.362;-6.240;2023-04-03T01:28:28;102911.56;;;8.57;69.24
64336;BME280;50672;53.362;-6.240;2023-04-03T01:31:22;102907.97;;;8.57;69.55
64336;BME280;50672;53.362;-6.240;2023-04-03T01:33:50;102903.72;;;8.52;69.38
64336;BME280;50672;53.362;-6.240;2023-04-03T01:36:24;102905.47;;;8.53;69.49
64336;BME280;50672;53.362;-6.240;2023-04-03T01:38:52;102904.72;;;8.51;69.63
64336;BME280;50672;53.362;-6.240;2023-04-03T01:41:19;102895.50;;;8.54;69.67
64336;BME280;50672;53.362;-6.240;2023-04-03T01:43:48;102900.03;;;8.53;69.91
64336;BME280;50672;53.362;-6.240;2023-04-03T01:46:19;102894.72;;;8.52;70.07
64336;BME280;50672;53.362;-6.240;2023-04-03T01:48:46;102895.50;;;8.54;69.84
64336;BME280;50672;53.362;-6.240;2023-04-03T01:51:13;102894.38;;;8.57;69.92
64336;BME280;50672;53.362;-6.240;2023-04-03T01:53:40;102900.69;;;8.57;70.17
64336;BME280;50672;53.362;-6.240;2023-04-03T01:56:08;102891.47;;;8.60;70.13
64336;BME280;50672;53.362;-6.240;2023-04-03T01:58:34;102898.00;;;8.57;70.15
64336;BME280;50672;53.362;-6.240;2023-04-03T02:01:01;102895.28;;;8.57;70.26
64336;BME280;50672;53.362;-6.240;2023-04-03T02:03:28;102899.50;;;8.61;70.42
64336;BME280;50672;53.362;-6.240;2023-04-03T02:05:56;102899.50;;;8.61;70.44
64336;BME280;50672;53.362;-6.240;2023-04-03T02:08:22;102897.66;;;8.62;70.37
64336;BME280;50672;53.362;-6.240;2023-04-03T02:10:50;102892.09;;;8.63;70.96
64336;BME280;50672;53.362;-6.240;2023-04-03T02:13:17;102892.00;;;8.65;70.57
64336;BME280;50672;53.362;-6.240;2023-04-03T02:15:45;102877.22;;;8.69;70.73
64336;BME280;50672;53.362;-6.240;2023-04-03T02:18:12;102882.66;;;8.69;70.59
64336;BME280;50672;53.362;-6.240;2023-04-03T02:20:38;102880.72;;;8.71;70.73
64336;BME280;50672;53.362;-6.240;2023-04-03T02:23:06;102875.59;;;8.66;70.83
64336;BME280;50672;53.362;-6.240;2023-04-03T02:25:33;102872.25;;;8.63;70.69
64336;BME280;50672;53.362;-6.240;2023-04-03T02:28:03;102867.78;;;8.62;70.73
64336;BME280;50672;53.362;-6.240;2023-04-03T02:30:30;102868.56;;;8.64;70.97
64336;BME280;50672;53.362;-6.240;2023-04-03T02:32:57;102874.06;;;8.62;70.89
64336;BME280;50672;53.362;-6.240;2023-04-03T02:35:24;102867.44;;;8.66;70.96
64336;BME280;50672;53.362;-6.240;2023-04-03T02:37:51;102862.91;;;8.67;70.92
64336;BME280;50672;53.362;-6.240;2023-04-03T02:40:18;102858.56;;;8.64;70.99
64336;BME280;50672;53.362;-6.240;2023-04-03T02:42:45;102868.34;;;8.67;71.11
64336;BME280;50672;53.362;-6.240;2023-04-03T02:45:11;102864.00;;;8.64;71.14
64336;BME280;50672;53.362;-6.240;2023-04-03T02:47:38;102862.91;;;8.67;71.26
64336;BME280;50672;53.362;-6.240;2023-04-03T02:50:05;102863.13;;;8.64;71.16
64336;BME280;50672;53.362;-6.240;2023-04-03T02:52:32;102847.81;;;8.63;71.41
64336;BME280;50672;53.362;-6.240;2023-04-03T02:54:59;102855.19;;;8.61;71.31
64336;BME280;50672;53.362;-6.240;2023-04-03T02:57:26;102852.28;;;8.64;71.60
64336;BME280;50672;53.362;-6.240;2023-04-03T02:59:52;102855.72;;;8.66;71.54
64336;BME280;50672;53.362;-6.240;2023-04-03T03:02:19;102853.34;;;8.61;71.55
64336;BME280;50672;53.362;-6.240;2023-04-03T03:04:46;102850.75;;;8.60;71.73
64336;BME280;50672;53.362;-6.240;2023-04-03T03:07:13;102837.50;;;8.55;71.85
64336;BME280;50672;53.362;-6.240;2023-04-03T03:09:40;102838.69;;;8.51;71.95
64336;BME280;50672;53.362;-6.240;2023-04-03T03:12:07;102835.53;;;8.44;72.42
64336;BME280;50672;53.362;-6.240;2023-04-03T03:14:33;102830.31;;;8.41;72.52
64336;BME280;50672;53.362;-6.240;2023-04-03T03:17:00;102828.50;;;8.42;72.50
64336;BME280;50672;53.362;-6.240;2023-04-03T03:19:27;102825.97;;;8.38;73.06
64336;BME280;50672;53.362;-6.240;2023-04-03T03:21:54;102823.59;;;8.34;73.07
64336;BME280;50672;53.362;-6.240;2023-04-03T03:24:21;102823.81;;;8.31;73.28
64336;BME280;50672;53.362;-6.240;2023-04-03T03:26:48;102825.56;;;8.32;73.79
64336;BME280;50672;53.362;-6.240;2023-04-03T03:29:14;102820.13;;;8.32;73.97
64336;BME280;50672;53.362;-6.240;2023-04-03T03:31:42;102821.22;;;8.29;74.34
64336;BME280;50672;53.362;-6.240;2023-04-03T03:34:08;102821.44;;;8.26;74.53
64336;BME280;50672;53.362;-6.240;2023-04-03T03:36:35;102814.38;;;8.24;74.68
64336;BME280;50672;53.362;-6.240;2023-04-03T03:39:02;102807.53;;;8.31;75.27
64336;BME280;50672;53.362;-6.240;2023-04-03T03:41:29;102808.09;;;8.36;75.35
64336;BME280;50672;53.362;-6.240;2023-04-03T03:43:56;102806.91;;;8.40;75.51
64336;BME280;50672;53.362;-6.240;2023-04-03T03:46:23;102813.84;;;8.44;75.68
64336;BME280;50672;53.362;-6.240;2023-04-03T03:48:50;102810.94;;;8.47;76.11
64336;BME280;50672;53.362;-6.240;2023-04-03T03:51:16;102807.75;;;8.53;76.27
64336;BME280;50672;53.362;-6.240;2023-04-03T03:53:43;102809.25;;;8.58;76.49
64336;BME280;50672;53.362;-6.240;2023-04-03T03:56:10;102801.66;;;8.63;76.27
64336;BME280;50672;53.362;-6.240;2023-04-03T03:58:37;102805.91;;;8.67;76.67
64336;BME280;50672;53.362;-6.240;2023-04-03T04:01:05;102802.72;;;8.73;76.82
64336;BME280;50672;53.362;-6.240;2023-04-03T04:03:32;102796.84;;;8.79;76.70
64336;BME280;50672;53.362;-6.240;2023-04-03T04:06:00;102808.75;;;8.89;76.65
64336;BME280;50672;53.362;-6.240;2023-04-03T04:08:28;102809.41;;;8.93;76.57
64336;BME280;50672;53.362;-6.240;2023-04-03T04:10:54;102806.34;;;8.98;76.74
64336;BME280;50672;53.362;-6.240;2023-04-03T04:13:21;102808.59;;;9.04;76.81
64336;BME280;50672;53.362;-6.240;2023-04-03T04:15:48;102802.94;;;9.07;76.55
64336;BME280;50672;53.362;-6.240;2023-04-03T04:18:15;102806.28;;;9.11;76.54
64336;BME280;50672;53.362;-6.240;2023-04-03T04:20:42;102803.13;;;9.17;76.31
64336;BME280;50672;53.362;-6.240;2023-04-03T04:23:08;102809.06;;;9.22;76.33
64336;BME280;50672;53.362;-6.240;2023-04-03T04:25:35;102809.69;;;9.26;76.20
64336;BME280;50672;53.362;-6.240;2023-04-03T04:28:03;102805.78;;;9.30;76.41
64336;BME280;50672;53.362;-6.240;2023-04-03T04:30:30;102812.72;;;9.34;75.91
64336;BME280;50672;53.362;-6.240;2023-04-03T04:32:56;102807.28;;;9.34;76.12
64336;BME280;50672;53.362;-6.240;2023-04-03T04:35:23;102804.31;;;9.37;75.71
64336;BME280;50672;53.362;-6.240;2023-04-03T04:37:50;102803.09;;;9.41;75.83
64336;BME280;50672;53.362;-6.240;2023-04-03T04:40:17;102801.03;;;9.45;75.80
64336;BME280;50672;53.362;-6.240;2023-04-03T04:42:44;102808.53;;;9.41;75.41
64336;BME280;50672;53.362;-6.240;2023-04-03T04:45:11;102796.63;;;9.31;75.29
64336;BME280;50672;53.362;-6.240;2023-04-03T04:47:38;102798.19;;;9.22;75.47
64336;BME280;50672;53.362;-6.240;2023-04-03T04:50:05;102791.72;;;9.12;75.31
64336;BME280;50672;53.362;-6.240;2023-04-03T04:52:32;102798.38;;;9.07;75.13
64336;BME280;50672;53.362;-6.240;2023-04-03T04:54:59;102802.06;;;9.06;75.34
64336;BME280;50672;53.362;-6.240;2023-04-03T04:57:26;102808.47;;;9.05;75.13
64336;BME280;50672;53.362;-6.240;2023-04-03T04:59:53;102799.34;;;9.06;74.97
64336;BME280;50672;53.362;-6.240;2023-04-03T05:02:19;102805.66;;;9.07;75.17
64336;BME280;50672;53.362;-6.240;2023-04-03T05:04:46;102808.88;;;9.12;74.70
64336;BME280;50672;53.362;-6.240;2023-04-03T05:07:13;102806.69;;;9.17;74.65
64336;BME280;50672;53.362;-6.240;2023-04-03T05:09:40;102805.59;;;9.20;74.64
64336;BME280;50672;53.362;-6.240;2023-04-03T05:12:08;102803.50;;;9.23;74.56
64336;BME280;50672;53.362;-6.240;2023-04-03T05:14:35;102804.38;;;9.24;74.21
64336;BME280;50672;53.362;-6.240;2023-04-03T05:17:02;102804.16;;;9.27;74.04
64336;BME280;50672;53.362;-6.240;2023-04-03T05:19:28;102802.28;;;9.28;74.01
64336;BME280;50672;53.362;-6.240;2023-04-03T05:21:55;102805.53;;;9.33;73.85
64336;BME280;50672;53.362;-6.240;2023-04-03T05:24:22;102810.97;;;9.33;73.74
64336;BME280;50672;53.362;-6.240;2023-04-03T05:26:49;102803.78;;;9.32;73.41
64336;BME280;50672;53.362;-6.240;2023-04-03T05:29:15;102802.81;;;9.33;73.36
64336;BME280;50672;53.362;-6.240;2023-04-03T05:31:42;102811.59;;;9.36;73.03
64336;BME280;50672;53.362;-6.240;2023-04-03T05:34:09;102808.00;;;9.36;73.01
64336;BME280;50672;53.362;-6.240;2023-04-03T05:36:36;102807.88;;;9.37;73.08
64336;BME280;50672;53.362;-6.240;2023-04-03T05:39:03;102814.22;;;9.38;72.65
64336;BME280;50672;53.362;-6.240;2023-04-03T05:41:30;102814.22;;;9.38;72.59
64336;BME280;50672;53.362;-6.240;2023-04-03T05:43:57;102806.06;;;9.38;72.64
64336;BME280;50672;53.362;-6.240;2023-04-03T05:46:24;102809.63;;;9.38;72.48
64336;BME280;50672;53.362;-6.240;2023-04-03T05:48:51;102812.22;;;9.40;72.16
64336;BME280;50672;53.362;-6.240;2023-04-03T05:51:22;102809.38;;;9.41;72.23
64336;BME280;50672;53.362;-6.240;2023-04-03T05:53:50;102813.72;;;9.44;72.40
64336;BME280;50672;53.362;-6.240;2023-04-03T05:56:19;102811.13;;;9.43;72.38
64336;BME280;50672;53.362;-6.240;2023-04-03T05:58:46;102813.72;;;9.44;72.11
64336;BME280;50672;53.362;-6.240;2023-04-03T06:01:13;102809.78;;;9.48;71.94
64336;BME280;50672;53.362;-6.240;2023-04-03T06:03:41;102812.16;;;9.53;72.02
64336;BME280;50672;53.362;-6.240;2023-04-03T06:06:13;102818.22;;;9.56;72.27
64336;BME280;50672;53.362;-6.240;2023-04-03T06:08:40;102815.25;;;9.60;72.34
64336;BME280;50672;53.362;-6.240;2023-04-03T06:11:07;102809.59;;;9.63;72.58
64336;BME280;50672;53.362;-6.240;2023-04-03T06:13:35;102810.59;;;9.62;72.62
64336;BME280;50672;53.362;-6.240;2023-04-03T06:16:01;102810.81;;;9.58;72.55
64336;BME280;50672;53.362;-6.240;2023-04-03T06:18:29;102805.38;;;9.58;72.55
64336;BME280;50672;53.362;-6.240;2023-04-03T06:20:56;102806.25;;;9.59;72.70
64336;BME280;50672;53.362;-6.240;2023-04-03T06:23:24;102802.66;;;9.58;72.68
64336;BME280;50672;53.362;-6.240;2023-04-03T06:25:51;102805.38;;;9.58;72.67
64336;BME280;50672;53.362;-6.240;2023-04-03T06:28:18;102801.91;;;9.56;72.75
64336;BME280;50672;53.362;-6.240;2023-04-03T06:30:46;102806.63;;;9.54;72.79
64336;BME280;50672;53.362;-6.240;2023-04-03T06:33:12;102798.91;;;9.48;72.99
64336;BME280;50672;53.362;-6.240;2023-04-03T06:35:39;102807.06;;;9.48;73.14
64336;BME280;50672;53.362;-6.240;2023-04-03T06:38:07;102803.38;;;9.49;72.87
64336;BME280;50672;53.362;-6.240;2023-04-03T06:40:36;102805.84;;;9.52;73.14
64336;BME280;50672;53.362;-6.240;2023-04-03T06:43:03;102807.72;;;9.52;72.62
64336;BME280;50672;53.362;-6.240;2023-04-03T06:45:30;102822.16;;;9.52;72.76
64336;BME280;50672;53.362;-6.240;2023-04-03T06:47:58;102824.03;;;9.52;72.83
64336;BME280;50672;53.362;-6.240;2023-04-03T06:50:24;102823.91;;;9.53;72.69
64336;BME280;50672;53.362;-6.240;2023-04-03T06:52:51;102821.06;;;9.55;72.87
64336;BME280;50672;53.362;-6.240;2023-04-03T06:55:18;102821.19;;;9.53;72.91
64336;BME280;50672;53.362;-6.240;2023-04-03T06:57:45;102826.75;;;9.52;72.79
64336;BME280;50672;53.362;-6.240;2023-04-03T07:00:12;102822.41;;;9.49;72.62
64336;BME280;50672;53.362;-6.240;2023-04-03T07:02:40;102823.50;;;9.47;72.65
64336;BME280;50672;53.362;-6.240;2023-04-03T07:05:07;102820.13;;;9.43;72.58
64336;BME280;50672;53.362;-6.240;2023-04-03T07:07:34;102827.19;;;9.46;72.34
64336;BME280;50672;53.362;-6.240;2023-04-03T07:10:01;102820.91;;;9.45;72.22
64336;BME280;50672;53.362;-6.240;2023-04-03T07:12:28;102818.06;;;9.47;72.45
64336;BME280;50672;53.362;-6.240;2023-04-03T07:14:55;102825.25;;;9.48;72.40
64336;BME280;50672;53.362;-6.240;2023-04-03T07:17:22;102819.81;;;9.48;72.35
64336;BME280;50672;53.362;-6.240;2023-04-03T07:19:48;102823.63;;;9.45;71.98
64336;BME280;50672;53.362;-6.240;2023-04-03T07:22:15;102826.97;;;9.49;71.92
64336;BME280;50672;53.362;-6.240;2023-04-03T07:24:43;102827.72;;;9.51;72.00
64336;BME280;50672;53.362;-6.240;2023-04-03T07:27:09;102831.09;;;9.54;71.75
64336;BME280;50672;53.362;-6.240;2023-04-03T07:29:39;102829.09;;;9.56;71.97
64336;BME280;50672;53.362;-6.240;2023-04-03T07:32:06;102827.03;;;9.60;71.80
64336;BME280;50672;53.362;-6.240;2023-04-03T07:34:33;102841.25;;;9.64;71.51
64336;BME280;50672;53.362;-6.240;2023-04-03T07:37:00;102830.88;;;9.69;71.63
64336;BME280;50672;53.362;-6.240;2023-04-03T07:39:27;102829.66;;;9.73;71.43
64336;BME280;50672;53.362;-6.240;2023-04-03T07:41:54;102838.22;;;9.80;71.67
64336;BME280;50672;53.362;-6.240;2023-04-03T07:44:24;102832.81;;;9.91;71.17
64336;BME280;50672;53.362;-6.240;2023-04-03T07:46:51;102830.22;;;10.01;71.04
64336;BME280;50672;53.362;-6.240;2023-04-03T07:49:18;102834.19;;;10.08;70.78
64336;BME280;50672;53.362;-6.240;2023-04-03T07:51:45;102852.75;;;10.25;70.99
64336;BME280;50672;53.362;-6.240;2023-04-03T07:54:11;102849.34;;;10.46;70.49
64336;BME280;50672;53.362;-6.240;2023-04-03T07:56:38;102841.19;;;10.57;70.26
64336;BME280;50672;53.362;-6.240;2023-04-03T07:59:05;102854.56;;;10.72;70.27
64336;BME280;50672;53.362;-6.240;2023-04-03T08:01:33;102846.16;;;10.75;69.61
64336;BME280;50672;53.362;-6.240;2023-04-03T08:04:00;102843.41;;;10.75;69.36
64336;BME280;50672;53.362;-6.240;2023-04-03T08:06:30;102844.03;;;10.78;69.09
64336;BME280;50672;53.362;-6.240;2023-04-03T08:09:12;102848.84;;;10.86;69.04
64336;BME280;50672;53.362;-6.240;2023-04-03T08:11:39;102848.13;;;10.84;68.50
64336;BME280;50672;53.362;-6.240;2023-04-03T08:14:07;102847.38;;;10.82;68.56
64336;BME280;50672;53.362;-6.240;2023-04-03T08:16:33;102844.66;;;10.82;68.27
64336;BME280;50672;53.362;-6.240;2023-04-03T08:19:00;102833.63;;;10.72;68.06
64336;BME280;50672;53.362;-6.240;2023-04-03T08:21:29;102842.66;;;10.73;67.81
64336;BME280;50672;53.362;-6.240;2023-04-03T08:23:55;102852.31;;;10.77;67.35
64336;BME280;50672;53.362;-6.240;2023-04-03T08:26:22;102849.72;;;10.75;67.51
64336;BME280;50672;53.362;-6.240;2023-04-03T08:28:49;102850.47;;;10.77;67.60
64336;BME280;50672;53.362;-6.240;2023-04-03T08:31:18;102851.34;;;10.78;67.58
64336;BME280;50672;53.362;-6.240;2023-04-03T08:33:45;102852.84;;;10.71;67.27
64336;BME280;50672;53.362;-6.240;2023-04-03T08:36:24;102848.75;;;10.65;67.23
64336;BME280;50672;53.362;-6.240;2023-04-03T08:38:52;102842.66;;;10.62;67.04
64336;BME280;50672;53.362;-6.240;2023-04-03T08:41:30;102846.63;;;10.57;67.31
64336;BME280;50672;53.362;-6.240;2023-04-03T08:44:18;102851.09;;;10.47;67.10
64336;BME280;50672;53.362;-6.240;2023-04-03T08:47:24;102852.84;;;10.48;67.22
64336;BME280;50672;53.362;-6.240;2023-04-03T08:49:54;102855.56;;;10.48;67.20
64336;BME280;50672;53.362;-6.240;2023-04-03T08:52:32;102845.91;;;10.55;67.34
64336;BME280;50672;53.362;-6.240;2023-04-03T08:55:04;102852.84;;;10.59;67.01
64336;BME280;50672;53.362;-6.240;2023-04-03T08:57:35;102853.22;;;10.66;67.03
64336;BME280;50672;53.362;-6.240;2023-04-03T09:02:47;102849.25;;;10.70;67.24
64336;BME280;50672;53.362;-6.240;2023-04-03T09:08:22;102846.28;;;10.73;66.70
64336;BME280;50672;53.362;-6.240;2023-04-03T09:10:57;102846.28;;;10.73;66.57
64336;BME280;50672;53.362;-6.240;2023-04-03T09:13:51;102846.53;;;10.82;66.64
64336;BME280;50672;53.362;-6.240;2023-04-03T09:19:09;102856.28;;;10.96;66.39
64336;BME280;50672;53.362;-6.240;2023-04-03T09:21:39;102855.41;;;10.95;65.97
64336;BME280;50672;53.362;-6.240;2023-04-03T09:24:14;102860.00;;;10.94;65.91
64336;BME280;50672;53.362;-6.240;2023-04-03T09:27:01;102853.56;;;10.96;66.20
64336;BME280;50672;53.362;-6.240;2023-04-03T09:29:30;102857.50;;;11.03;65.69
64336;BME280;50672;53.362;-6.240;2023-04-03T09:32:01;102854.78;;;11.03;65.57
64336;BME280;50672;53.362;-6.240;2023-04-03T09:34:31;102854.88;;;11.13;65.71
64336;BME280;50672;53.362;-6.240;2023-04-03T09:37:01;102851.03;;;11.15;65.41
64336;BME280;50672;53.362;-6.240;2023-04-03T09:39:49;102838.00;;;11.19;65.27
64336;BME280;50672;53.362;-6.240;2023-04-03T09:42:20;102835.16;;;11.20;65.23
64336;BME280;50672;53.362;-6.240;2023-04-03T09:45:21;102838.38;;;11.25;65.19
64336;BME280;50672;53.362;-6.240;2023-04-03T09:48:07;102834.88;;;11.35;65.04
64336;BME280;50672;53.362;-6.240;2023-04-03T09:53:34;102835.25;;;11.62;65.00
64336;BME280;50672;53.362;-6.240;2023-04-03T09:59:06;102835.97;;;11.65;64.78
64336;BME280;50672;53.362;-6.240;2023-04-03T10:01:38;102832.00;;;11.69;64.28
64336;BME280;50672;53.362;-6.240;2023-04-03T10:04:17;102831.47;;;11.75;64.20
64336;BME280;50672;53.362;-6.240;2023-04-03T10:06:55;102837.13;;;11.83;64.36
64336;BME280;50672;53.362;-6.240;2023-04-03T10:09:30;102831.66;;;11.94;64.03
64336;BME280;50672;53.362;-6.240;2023-04-03T10:12:12;102837.84;;;11.96;63.84
64336;BME280;50672;53.362;-6.240;2023-04-03T10:30:32;102844.56;;;11.27;63.75
64336;BME280;50672;53.362;-6.240;2023-04-03T10:38:33;102839.25;;;11.15;63.88
64336;BME280;50672;53.362;-6.240;2023-04-03T10:41:11;102843.50;;;11.07;64.13
64336;BME280;50672;53.362;-6.240;2023-04-03T10:46:47;102839.75;;;11.20;64.60
64336;BME280;50672;53.362;-6.240;2023-04-03T10:49:27;102850.25;;;11.24;64.67
64336;BME280;50672;53.362;-6.240;2023-04-03T10:52:17;102843.81;;;11.25;64.58
64336;BME280;50672;53.362;-6.240;2023-04-03T10:57:29;102846.44;;;11.16;64.69
64336;BME280;50672;53.362;-6.240;2023-04-03T11:00:22;102844.69;;;11.15;64.94
64336;BME280;50672;53.362;-6.240;2023-04-03T11:02:56;102849.81;;;11.08;64.83
64336;BME280;50672;53.362;-6.240;2023-04-03T11:05:34;102847.06;;;11.19;64.73
64336;BME280;50672;53.362;-6.240;2023-04-03T11:11:31;102836.88;;;11.54;64.75
64336;BME280;50672;53.362;-6.240;2023-04-03T11:14:37;102835.03;;;11.54;64.67
64336;BME280;50672;53.362;-6.240;2023-04-03T11:22:43;102822.81;;;11.70;64.71
64336;BME280;50672;53.362;-6.240;2023-04-03T11:27:42;102826.88;;;11.75;64.46
64336;BME280;50672;53.362;-6.240;2023-04-03T11:33:02;102833.88;;;11.68;64.51
64336;BME280;50672;53.362;-6.240;2023-04-03T11:35:33;102828.34;;;11.79;64.52
64336;BME280;50672;53.362;-6.240;2023-04-03T11:38:02;102822.78;;;12.02;64.26
64336;BME280;50672;53.362;-6.240;2023-04-03T11:40:34;102829.75;;;12.16;64.48
64336;BME280;50672;53.362;-6.240;2023-04-03T11:43:07;102823.00;;;12.41;64.19
64336;BME280;50672;53.362;-6.240;2023-04-03T11:50:50;102815.50;;;13.44;63.64
64336;BME280;50672;53.362;-6.240;2023-04-03T11:53:35;102823.41;;;13.57;63.16
64336;BME280;50672;53.362;-6.240;2023-04-03T11:56:49;102815.66;;;13.62;62.63
64336;BME280;50672;53.362;-6.240;2023-04-03T12:01:47;102809.75;;;13.47;62.09
64336;BME280;50672;53.362;-6.240;2023-04-03T12:04:15;102811.47;;;13.39;62.14
64336;BME280;50672;53.362;-6.240;2023-04-03T12:10:13;102820.25;;;13.52;61.41
64336;BME280;50672;53.362;-6.240;2023-04-03T12:12:33;102813.47;;;13.66;61.61
64336;BME280;50672;53.362;-6.240;2023-04-03T12:15:22;102814.03;;;13.79;61.40
64336;BME280;50672;53.362;-6.240;2023-04-03T12:17:49;102807.72;;;13.69;61.07
64336;BME280;50672;53.362;-6.240;2023-04-03T12:20:57;102799.94;;;13.64;61.07
64336;BME280;50672;53.362;-6.240;2023-04-03T12:23:30;102807.72;;;13.59;60.65
64336;BME280;50672;53.362;-6.240;2023-04-03T12:26:19;102806.84;;;13.49;60.42
64336;BME280;50672;53.362;-6.240;2023-04-03T12:28:49;102792.31;;;13.48;60.57
64336;BME280;50672;53.362;-6.240;2023-04-03T12:31:20;102790.28;;;13.70;60.19
64336;BME280;50672;53.362;-6.240;2023-04-03T12:34:18;102795.44;;;13.93;60.07
64336;BME280;50672;53.362;-6.240;2023-04-03T12:45:23;102783.16;;;15.18;59.34
64336;BME280;50672;53.362;-6.240;2023-04-03T12:47:53;102773.03;;;17.43;58.49
64336;BME280;50672;53.362;-6.240;2023-04-03T12:50:30;102779.75;;;18.55;57.67
64336;BME280;50672;53.362;-6.240;2023-04-03T12:53:02;102774.59;;;19.99;56.74
64336;BME280;50672;53.362;-6.240;2023-04-03T12:55:31;102772.13;;;20.64;55.50
64336;BME280;50672;53.362;-6.240;2023-04-03T12:58:13;102781.47;;;20.78;54.24
64336;BME280;50672;53.362;-6.240;2023-04-03T13:00:40;102761.06;;;21.00;52.98
64336;BME280;50672;53.362;-6.240;2023-04-03T13:03:24;102768.19;;;21.75;51.85
64336;BME280;50672;53.362;-6.240;2023-04-03T13:05:52;102756.75;;;21.84;50.57
64336;BME280;50672;53.362;-6.240;2023-04-03T13:08:20;102759.47;;;22.13;49.70
64336;BME280;50672;53.362;-6.240;2023-04-03T13:13:26;102751.56;;;22.10;47.92
64336;BME280;50672;53.362;-6.240;2023-04-03T13:15:53;102750.84;;;21.44;47.01
64336;BME280;50672;53.362;-6.240;2023-04-03T13:21:03;102749.25;;;20.10;46.51
64336;BME280;50672;53.362;-6.240;2023-04-03T13:23:32;102753.81;;;20.33;46.40
64336;BME280;50672;53.362;-6.240;2023-04-03T13:26:00;102755.88;;;21.56;46.07
64336;BME280;50672;53.362;-6.240;2023-04-03T13:28:30;102750.78;;;23.33;45.03
64336;BME280;50672;53.362;-6.240;2023-04-03T13:31:08;102735.09;;;25.16;44.14
64336;BME280;50672;53.362;-6.240;2023-04-03T13:36:30;102733.06;;;27.70;41.39
64336;BME280;50672;53.362;-6.240;2023-04-03T13:39:23;102721.09;;;28.34;39.96
64336;BME280;50672;53.362;-6.240;2023-04-03T13:42:20;102726.66;;;29.49;38.46
64336;BME280;50672;53.362;-6.240;2023-04-03T13:44:42;102719.28;;;29.99;36.87
64336;BME280;50672;53.362;-6.240;2023-04-03T13:47:19;102742.44;;;30.28;35.94
64336;BME280;50672;53.362;-6.240;2023-04-03T13:53:11;102713.94;;;29.97;33.75
64336;BME280;50672;53.362;-6.240;2023-04-03T13:55:54;102721.78;;;30.17;32.69
64336;BME280;50672;53.362;-6.240;2023-04-03T13:58:27;102729.09;;;30.90;32.41
64336;BME280;50672;53.362;-6.240;2023-04-03T14:03:40;102712.50;;;31.91;30.66
64336;BME280;50672;53.362;-6.240;2023-04-03T14:06:15;102662.56;;;32.34;29.79
64336;BME280;50672;53.362;-6.240;2023-04-03T14:08:46;102680.75;;;33.00;29.38
64336;BME280;50672;53.362;-6.240;2023-04-03T14:11:19;102706.13;;;33.67;28.43
64336;BME280;50672;53.362;-6.240;2023-04-03T14:13:49;102700.41;;;33.88;27.60
64336;BME280;50672;53.362;-6.240;2023-04-03T14:16:20;102685.03;;;34.30;27.09
64336;BME280;50672;53.362;-6.240;2023-04-03T14:18:48;102678.78;;;34.33;26.83
64336;BME280;50672;53.362;-6.240;2023-04-03T14:21:17;102691.94;;;33.93;26.25
64336;BME280;50672;53.362;-6.240;2023-04-03T14:23:45;102702.75;;;33.45;26.10
64336;BME280;50672;53.362;-6.240;2023-04-03T14:26:18;102668.00;;;33.60;25.67
64336;BME280;50672;53.362;-6.240;2023-04-03T14:28:52;102686.63;;;33.76;25.42
64336;BME280;50672;53.362;-6.240;2023-04-03T14:31:20;102691.69;;;33.79;24.97
64336;BME280;50672;53.362;-6.240;2023-04-03T14:33:48;102684.97;;;34.40;24.79
64336;BME280;50672;53.362;-6.240;2023-04-03T14:36:20;102680.28;;;34.65;24.46
64336;BME280;50672;53.362;-6.240;2023-04-03T14:38:48;102668.28;;;34.44;23.65
64336;BME280;50672;53.362;-6.240;2023-04-03T14:41:19;102672.25;;;33.21;23.55